M I D A S
Marine Information and Data Acquisition System
Tripno 1466 of the Zeeleeuw from 2008-04-25 06:40:08 to 2008-04-25 13:13:30
Back to CruiseResearch ActivitiesStationsMapUnderway DataData graphs

EquipmentUnitsComment
TimeDGPSUTC
LatitudeDGPSDM.mWGS84
LongitudeDGPSDM.mWGS84
HeadingGyrodeg 
SOGDGPSknotsSpeed over ground
COGDGPSdegCourse over ground
DepthEcho soundermeters200 kHz
Missing or incorrect values are displayed as -999
Navigation data collected by the RV Zeeleeuw from 2008-04-25 06:36:28 to 2008-04-25 13:23:19
Time Latitude Longitude Heading SOG COG Depth
2008-04-25 06:37:33 51°13.68 2°55.883 107.1 3.8 289 -999
2008-04-25 06:38:33 51°13.693 2°55.788 92.2 3.2 277 -999
2008-04-25 06:39:32 51°13.695 2°55.73 74.5 1.3 265 13.2
2008-04-25 06:40:33 51°13.698 2°55.721 40.3 0.9 21 14.7
2008-04-25 06:41:33 51°13.744 2°55.706 339.5 5.2 337 10.8
2008-04-25 06:42:32 51°13.84 2°55.635 336 6.8 335 -999
2008-04-25 06:43:33 51°13.944 2°55.56 335.5 6.5 334 -999
2008-04-25 06:44:33 51°14.042 2°55.491 338.3 6.5 337 -999
2008-04-25 06:45:33 51°14.148 2°55.412 333.9 8.2 333 -999
2008-04-25 06:46:32 51°14.255 2°55.293 316.9 6.9 314 11
2008-04-25 06:47:33 51°14.324 2°55.157 306.7 6.3 307 11.8
2008-04-25 06:48:32 51°14.388 2°55.023 306.2 7.3 306 10.7
2008-04-25 06:49:31 51°14.492 2°54.863 327.5 9.7 328 10.4
2008-04-25 06:50:30 51°14.645 2°54.72 336.7 11.6 332 9.8
2008-04-25 06:51:30 51°14.82 2°54.561 330.9 12.4 327 9.7
2008-04-25 06:52:30 51°14.99 2°54.376 329 12.2 326 8.7
2008-04-25 06:53:30 51°15.162 2°54.209 343 11.9 343 9
2008-04-25 06:54:30 51°15.352 2°54.129 344.4 11.9 341 9.7
2008-04-25 06:55:30 51°15.536 2°54.011 342 12 337 10.1
2008-04-25 06:56:30 51°15.71 2°53.856 334 12 329 10.7
2008-04-25 06:57:29 51°15.882 2°53.7 333.8 12.1 330 11
2008-04-25 06:58:30 51°16.062 2°53.537 332.7 12.3 329 11.4
2008-04-25 06:59:30 51°16.241 2°53.374 336 12.4 332 11.6
2008-04-25 07:00:29 51°16.414 2°53.206 333 12.4 330 11.7
2008-04-25 07:01:30 51°16.606 2°53.07 342.5 12.4 338 11.5
2008-04-25 07:02:30 51°16.795 2°52.935 339.6 12.4 336 9.8
2008-04-25 07:03:30 51°16.981 2°52.802 339.1 12.3 336 9.3
2008-04-25 07:04:30 51°17.172 2°52.686 349.8 12.2 347 9.7
2008-04-25 07:05:30 51°17.374 2°52.634 355.5 12.3 350 9.8
2008-04-25 07:06:30 51°17.573 2°52.572 354.9 12.2 349 10.3
2008-04-25 07:07:30 51°17.774 2°52.533 2 12.1 357 10.1
2008-04-25 07:08:30 51°17.977 2°52.507 2.8 12.2 357 10.5
2008-04-25 07:09:30 51°18.177 2°52.519 19 11.8 16 10.7
2008-04-25 07:10:30 51°18.312 2°52.728 66.9 11.3 67 10.9
2008-04-25 07:11:29 51°18.376 2°53.011 74.8 11.6 72 11.1
2008-04-25 07:12:30 51°18.453 2°53.297 68.5 11.6 64 11
2008-04-25 07:13:30 51°18.537 2°53.572 66.9 11.6 64 11
2008-04-25 07:14:30 51°18.625 2°53.846 66.6 11.6 64 11.1
2008-04-25 07:15:30 51°18.713 2°54.119 68.1 11.5 65 11
2008-04-25 07:16:30 51°18.804 2°54.393 66.5 11.7 63 11.1
2008-04-25 07:17:30 51°18.89 2°54.668 66.7 11.6 60 11.1
2008-04-25 07:18:30 51°18.981 2°54.939 65.7 11.7 60 11.2
2008-04-25 07:19:30 51°19.074 2°55.206 65.8 11.6 63 10.8
2008-04-25 07:20:30 51°19.163 2°55.477 65.8 11.5 64 11
2008-04-25 07:21:30 51°19.241 2°55.755 70.6 11.3 69 10.8
2008-04-25 07:22:30 51°19.311 2°56.038 72.8 11.5 68 10.7
2008-04-25 07:23:30 51°19.378 2°56.321 69.6 11.3 68 10.7
2008-04-25 07:24:30 51°19.455 2°56.599 68.4 11.4 65 10.6
2008-04-25 07:25:30 51°19.529 2°56.877 69.1 11.3 69 10.6
2008-04-25 07:26:30 51°19.598 2°57.158 72.2 11.5 69 10.4
2008-04-25 07:27:30 51°19.663 2°57.439 71.8 11.1 70 10.5
2008-04-25 07:28:30 51°19.73 2°57.721 71 11.3 68 10.3
2008-04-25 07:29:30 51°19.799 2°57.999 70.8 11.3 68 10.1
2008-04-25 07:30:30 51°19.863 2°58.278 71.4 11.2 70 10.1
2008-04-25 07:31:30 51°19.936 2°58.553 67.7 11.1 69 9.9
2008-04-25 07:32:30 51°20.005 2°58.829 68.3 11 69 9.7
2008-04-25 07:33:30 51°20.075 2°59.103 68.4 11.3 67 9.6
2008-04-25 07:34:30 51°20.142 2°59.38 68.9 11.1 70 9.6
2008-04-25 07:35:30 51°20.2 2°59.661 72.4 11.1 71 9.6
2008-04-25 07:36:30 51°20.258 2°59.943 71.8 11.1 72 9.6
2008-04-25 07:37:30 51°20.315 3°0.226 72 11.1 70 9.6
2008-04-25 07:38:30 51°20.378 3°0.505 71 11.2 70 9.7
2008-04-25 07:39:30 51°20.438 3°0.787 70.6 11.1 71 9.6
2008-04-25 07:40:30 51°20.5 3°1.07 70.3 11.4 69 9.5
2008-04-25 07:41:30 51°20.562 3°1.354 71.3 11.4 72 9.5
2008-04-25 07:42:30 51°20.633 3°1.633 66.9 11.4 66 9.4
2008-04-25 07:43:30 51°20.703 3°1.912 69.8 11.2 71 9.5
2008-04-25 07:44:30 51°20.761 3°2.197 69.1 11.2 68 9.5
2008-04-25 07:45:30 51°20.83 3°2.476 71.1 11.4 70 9.4
2008-04-25 07:46:30 51°20.892 3°2.754 68.8 11.1 67 9.6
2008-04-25 07:47:30 51°20.956 3°3.027 71.1 10.9 73 9.6
2008-04-25 07:48:30 51°21.014 3°3.303 73.2 11 74 9.7
2008-04-25 07:49:30 51°21.069 3°3.585 71.7 11 70 9.7
2008-04-25 07:50:30 51°21.148 3°3.848 61.7 11.1 60 9.8
2008-04-25 07:51:30 51°21.229 3°4.108 67 10.9 66 9.8
2008-04-25 07:52:30 51°21.294 3°4.379 69.2 10.9 70 9.9
2008-04-25 07:53:30 51°21.366 3°4.644 65.9 10.8 65 10
2008-04-25 07:54:30 51°21.435 3°4.914 67.2 11.1 67 9.9
2008-04-25 07:55:30 51°21.496 3°5.189 70.3 10.9 70 10.1
2008-04-25 07:56:30 51°21.559 3°5.459 70 10.8 70 10.1
2008-04-25 07:57:30 51°21.621 3°5.73 68.5 10.8 69 10.1
2008-04-25 07:58:30 51°21.688 3°5.995 68.5 10.8 69 10.3
2008-04-25 07:59:30 51°21.751 3°6.262 69.4 10.7 68 10.5
2008-04-25 08:00:30 51°21.819 3°6.53 67.5 10.8 66 10.8
2008-04-25 08:01:30 51°21.885 3°6.795 75.2 10.7 76 10.9
2008-04-25 08:02:30 51°21.907 3°7.071 85.1 10.4 85 10.9
2008-04-25 08:03:30 51°21.916 3°7.313 82.8 7.4 87 11
2008-04-25 08:04:30 51°21.923 3°7.492 82.6 6.5 88 11.1
2008-04-25 08:05:30 51°21.928 3°7.689 82 9.2 88 11
2008-04-25 08:06:30 51°21.939 3°7.957 80.7 10.3 87 10.8
2008-04-25 08:07:30 51°21.942 3°8.236 83.8 10.6 88 10.8
2008-04-25 08:08:30 51°21.945 3°8.517 83.5 10.5 87 10.9
2008-04-25 08:09:30 51°21.948 3°8.799 83.1 10.6 88 11.1
2008-04-25 08:10:30 51°21.935 3°8.983 106.8 4.5 129 11.3
2008-04-25 08:11:30 51°21.868 3°9.002 169.9 3.9 194 11
2008-04-25 08:12:30 51°21.817 3°8.97 177.7 2.9 204 10.8
2008-04-25 08:13:30 51°21.77 3°8.929 198.9 4 214 10.6
2008-04-25 08:14:30 51°21.714 3°8.849 219.1 5 226 10.2
2008-04-25 08:15:30 51°21.672 3°8.735 258.1 4.6 251 9.8
2008-04-25 08:16:30 51°21.655 3°8.62 272 4.4 259 9.7
2008-04-25 08:17:30 51°21.643 3°8.507 273.1 4.3 260 9.7
2008-04-25 08:18:30 51°21.635 3°8.395 285.8 4.1 268 9.7
2008-04-25 08:19:30 51°21.635 3°8.288 288 4 270 9.8
2008-04-25 08:20:30 51°21.635 3°8.18 284.7 4 269 9.7
2008-04-25 08:21:30 51°21.635 3°8.073 291 3.9 274 9.7
2008-04-25 08:22:30 51°21.645 3°7.973 307.6 3.8 284 9.9
2008-04-25 08:23:30 51°21.661 3°7.876 309.3 3.8 285 10
2008-04-25 08:24:30 51°21.677 3°7.779 309.5 3.8 285 10.1
2008-04-25 08:25:30 51°21.694 3°7.684 311.2 3.7 286 10.1
2008-04-25 08:26:30 51°21.711 3°7.589 311.3 3.7 286 10.2
2008-04-25 08:27:30 51°21.728 3°7.494 309.8 3.8 285 10.3
2008-04-25 08:28:30 51°21.745 3°7.398 313.5 3.7 288 10.4
2008-04-25 08:29:30 51°21.766 3°7.308 317.9 3.6 291 10.5
2008-04-25 08:30:30 51°21.786 3°7.219 316.4 3.6 290 10.6
2008-04-25 08:31:30 51°21.806 3°7.128 315.7 3.7 289 10.7
2008-04-25 08:32:30 51°21.826 3°7.036 315.1 3.7 289 10.7
2008-04-25 08:33:30 51°21.846 3°6.942 314.4 3.8 289 10.7
2008-04-25 08:34:30 51°21.866 3°6.846 314.1 3.7 289 10.8
2008-04-25 08:35:30 51°21.888 3°6.755 314.7 3.7 289 10.9
2008-04-25 08:36:30 51°21.907 3°6.659 314.9 3.8 290 10.8
2008-04-25 08:37:30 51°21.929 3°6.563 316.4 3.8 291 10.9
2008-04-25 08:38:30 51°21.953 3°6.471 318.1 3.7 292 10.9
2008-04-25 08:39:30 51°21.976 3°6.379 317.5 3.7 293 10.9
2008-04-25 08:40:30 51°22.001 3°6.288 319 3.7 294 10.9
2008-04-25 08:41:30 51°22.027 3°6.202 320.7 3.6 297 11
2008-04-25 08:42:30 51°22.055 3°6.12 322.9 3.5 299 11.1
2008-04-25 08:43:30 51°22.084 3°6.051 348 2.5 318 11
2008-04-25 08:44:30 51°22.11 3°6.035 42.3 1.1 8 11.1
2008-04-25 08:45:30 51°22.118 3°6.037 55.8 0.3 351 11.2
2008-04-25 08:46:30 51°22.122 3°6.032 48.8 0.4 298 11.2
2008-04-25 08:47:30 51°22.123 3°6.02 37 0.6 277 11.2
2008-04-25 08:48:30 51°22.125 3°6 25.1 0.8 293 11.3
2008-04-25 08:49:30 51°22.153 3°5.954 326.7 3.8 301 11.2
2008-04-25 08:50:30 51°22.155 3°5.832 256.1 5.5 253 11.2
2008-04-25 08:51:30 51°22.12 3°5.66 255.8 7.6 253 11.2
2008-04-25 08:52:30 51°22.076 3°5.458 249 8.4 248 11.1
2008-04-25 08:53:30 51°22.011 3°5.198 246.5 12.1 247 11
2008-04-25 08:54:30 51°21.926 3°4.878 245.5 13.7 246 10.8
2008-04-25 08:55:30 51°21.833 3°4.542 243.6 13.8 246 10.8
2008-04-25 08:56:30 51°21.736 3°4.21 243.7 13.8 245 10.6
2008-04-25 08:57:30 51°21.63 3°3.885 239.4 13.7 241 10.4
2008-04-25 08:58:30 51°21.521 3°3.564 240.9 13.7 242 10.2
2008-04-25 08:59:30 51°21.415 3°3.239 242.2 13.8 243 10.2
2008-04-25 09:00:30 51°21.314 3°2.908 245.8 13.8 246 10
2008-04-25 09:01:30 51°21.219 3°2.571 245.5 13.9 245 10
2008-04-25 09:02:30 51°21.123 3°2.236 244.9 13.9 245 9.9
2008-04-25 09:03:30 51°21.024 3°1.903 244.1 13.8 244 9.8
2008-04-25 09:04:30 51°20.924 3°1.572 243.7 13.9 245 9.6
2008-04-25 09:05:30 51°20.825 3°1.242 244.2 13.8 244 9.7
2008-04-25 09:06:30 51°20.725 3°0.911 244.3 13.8 245 9.6
2008-04-25 09:07:30 51°20.625 3°0.582 243.6 13.7 244 9.5
2008-04-25 09:08:30 51°20.525 3°0.254 243.3 13.7 244 9.6
2008-04-25 09:09:30 51°20.425 2°59.925 243 13.8 244 9.4
2008-04-25 09:10:30 51°20.324 2°59.597 243.1 13.8 243 9.3
2008-04-25 09:11:30 51°20.223 2°59.268 243 13.7 244 9.2
2008-04-25 09:12:30 51°20.122 2°58.94 243.1 13.8 244 9.2
2008-04-25 09:13:30 51°20.02 2°58.612 243.4 13.7 244 9.3
2008-04-25 09:14:30 51°19.919 2°58.285 243.2 13.7 244 9.5
2008-04-25 09:15:30 51°19.818 2°57.958 242.5 13.7 244 9.6
2008-04-25 09:16:30 51°19.717 2°57.631 243 13.8 244 9.6
2008-04-25 09:17:30 51°19.615 2°57.303 243.4 13.8 243 9.6
2008-04-25 09:18:30 51°19.512 2°56.975 243.2 13.9 243 9.7
2008-04-25 09:19:30 51°19.403 2°56.651 239.9 13.8 241 9.8
2008-04-25 09:20:30 51°19.3 2°56.321 244.4 13.9 244 9.8
2008-04-25 09:21:30 51°19.199 2°55.987 244.2 14 244 9.7
2008-04-25 09:22:30 51°19.096 2°55.654 243.8 14 244 9.9
2008-04-25 09:23:30 51°18.992 2°55.32 243.5 14 243 9.9
2008-04-25 09:24:30 51°18.888 2°54.987 244.1 14 244 10
2008-04-25 09:25:30 51°18.783 2°54.656 243.4 14 243 10.1
2008-04-25 09:26:30 51°18.678 2°54.324 243.7 14 243 10.1
2008-04-25 09:27:30 51°18.573 2°53.992 243.8 14 243 10
2008-04-25 09:28:30 51°18.462 2°53.667 240.1 13.9 240 10
2008-04-25 09:29:30 51°18.346 2°53.35 240.6 13.8 240 9.9
2008-04-25 09:30:30 51°18.234 2°53.029 242.2 13.8 241 9.8
2008-04-25 09:31:30 51°18.123 2°52.708 242 13.8 241 9.8
2008-04-25 09:32:30 51°17.979 2°52.433 216.3 13.7 217 9.5
2008-04-25 09:33:30 51°17.778 2°52.269 199.3 13.6 202 9.5
2008-04-25 09:34:30 51°17.565 2°52.152 191.5 13.5 195 9.6
2008-04-25 09:35:30 51°17.351 2°52.049 197.4 13.5 203 9.7
2008-04-25 09:36:30 51°17.162 2°51.856 215.2 13.5 216 10
2008-04-25 09:37:30 51°16.98 2°51.647 214.7 13.5 216 9.9
2008-04-25 09:38:30 51°16.802 2°51.431 217.6 13.4 218 9.6
2008-04-25 09:39:30 51°16.626 2°51.208 217.4 13.5 218 9.1
2008-04-25 09:40:30 51°16.45 2°50.986 216.9 13.4 218 9.7
2008-04-25 09:41:30 51°16.275 2°50.769 216.6 13.4 220 9.5
2008-04-25 09:42:30 51°16.157 2°50.479 246.4 13.1 245 8.6
2008-04-25 09:43:30 51°16.05 2°50.173 240.1 13.3 239 9
2008-04-25 09:44:30 51°15.929 2°49.878 235.3 13.3 235 9.5
2008-04-25 09:45:30 51°15.801 2°49.59 234.5 13.3 234 9.9
2008-04-25 09:46:30 51°15.661 2°49.313 230.1 13.3 233 10.4
2008-04-25 09:47:30 51°15.525 2°49.032 230.3 13.5 232 10.8
2008-04-25 09:48:30 51°15.387 2°48.747 230.5 13.5 233 11.4
2008-04-25 09:49:30 51°15.266 2°48.444 239.6 13.7 242 11.6
2008-04-25 09:50:30 51°15.155 2°48.129 238 13.7 240 11.7
2008-04-25 09:51:30 51°15.038 2°47.817 237.8 13.7 239 11.8
2008-04-25 09:52:30 51°14.921 2°47.506 238 13.7 239 11.9
2008-04-25 09:53:30 51°14.803 2°47.196 238 13.7 238 12
2008-04-25 09:54:30 51°14.684 2°46.887 237.6 13.7 238 12.1
2008-04-25 09:55:30 51°14.562 2°46.578 237.8 13.8 238 12.1
2008-04-25 09:56:30 51°14.44 2°46.268 237.1 13.8 238 12
2008-04-25 09:57:30 51°14.318 2°45.958 237.6 13.8 238 11.9
2008-04-25 09:58:30 51°14.204 2°45.639 240.5 13.8 241 11.8
2008-04-25 09:59:30 51°14.08 2°45.332 234.3 13.7 236 11.6
2008-04-25 10:00:30 51°13.966 2°45.018 242.5 13.7 242 11.1
2008-04-25 10:01:30 51°13.854 2°44.701 240.9 13.7 242 10.6
2008-04-25 10:02:30 51°13.754 2°44.378 244.7 13.5 245 9.4
2008-04-25 10:03:30 51°13.655 2°44.057 241.6 13.3 241 8.1
2008-04-25 10:04:30 51°13.538 2°43.759 236.1 13.2 237 8
2008-04-25 10:05:30 51°13.422 2°43.459 237.6 13.3 239 8.3
2008-04-25 10:06:30 51°13.307 2°43.157 238.3 13.3 239 8.7
2008-04-25 10:07:30 51°13.195 2°42.854 238.7 13.3 239 9.1
2008-04-25 10:08:30 51°13.081 2°42.55 238.4 13.3 239 9.3
2008-04-25 10:09:30 51°12.975 2°42.239 242.6 13.4 242 9.6
2008-04-25 10:10:30 51°12.868 2°41.927 241.7 13.4 241 9.8
2008-04-25 10:11:30 51°12.76 2°41.617 240.9 13.4 241 9.9
2008-04-25 10:12:30 51°12.65 2°41.308 240.3 13.4 240 10
2008-04-25 10:13:30 51°12.537 2°41 240.6 13.4 240 10.2
2008-04-25 10:14:30 51°12.418 2°40.699 235.7 13.4 236 10.1
2008-04-25 10:15:30 51°12.296 2°40.403 237.2 13.4 237 9.9
2008-04-25 10:16:30 51°12.176 2°40.106 238 13.3 237 9.7
2008-04-25 10:17:30 51°12.058 2°39.807 238.3 13.3 238 9.4
2008-04-25 10:18:30 51°11.941 2°39.508 237.8 13.3 239 9.3
2008-04-25 10:19:30 51°11.835 2°39.199 242.4 13.2 241 9
2008-04-25 10:20:30 51°11.728 2°38.891 241.5 13.3 240 9.1
2008-04-25 10:21:30 51°11.619 2°38.584 240.9 13.4 241 9.4
2008-04-25 10:22:30 51°11.508 2°38.278 240.6 13.3 240 9.4
2008-04-25 10:23:30 51°11.388 2°37.983 236.2 13.4 237 10
2008-04-25 10:24:30 51°11.276 2°37.678 240.5 13.3 240 11
2008-04-25 10:25:30 51°11.165 2°37.372 240.3 13.4 240 11.1
2008-04-25 10:26:30 51°11.048 2°37.069 236.7 13.4 236 11.4
2008-04-25 10:27:30 51°10.924 2°36.774 237.2 13.4 237 10.9
2008-04-25 10:28:30 51°10.804 2°36.474 239.6 13.4 240 10.7
2008-04-25 10:29:30 51°10.671 2°36.193 224.5 13.3 223 10.3
2008-04-25 10:30:30 51°10.487 2°35.992 213.3 13.4 214 10
2008-04-25 10:31:30 51°10.299 2°35.802 209.3 13.3 211 9.8
2008-04-25 10:32:30 51°10.107 2°35.625 207.7 13.4 211 11.2
2008-04-25 10:33:30 51°9.915 2°35.447 207.8 13.4 211 16.6
2008-04-25 10:34:30 51°9.711 2°35.342 179.4 12.9 181 17.9
2008-04-25 10:35:30 51°9.497 2°35.379 165.4 12.9 171 16.7
2008-04-25 10:36:30 51°9.282 2°35.413 168.8 13 175 15.6
2008-04-25 10:37:30 51°9.092 2°35.44 172 8.3 182 15.8
2008-04-25 10:38:30 51°9.003 2°35.403 198.5 3.7 212 15.7
2008-04-25 10:39:30 51°8.966 2°35.352 218.5 2.6 223 15.8
2008-04-25 10:40:30 51°8.938 2°35.31 217.8 2.1 223 15.8
2008-04-25 10:41:30 51°8.914 2°35.274 217.5 2 223 15.7
2008-04-25 10:42:30 51°8.889 2°35.242 215 1.9 220 15.6
2008-04-25 10:43:30 51°8.864 2°35.206 215.6 3 221 15.6
2008-04-25 10:44:30 51°8.823 2°35.113 250.3 5.1 247 15.6
2008-04-25 10:45:30 51°8.8 2°34.972 272.7 5.5 265 15.9
2008-04-25 10:46:30 51°8.801 2°34.847 285 4.2 273 16.2
2008-04-25 10:47:30 51°8.802 2°34.741 280.4 3.9 270 16.1
2008-04-25 10:48:30 51°8.799 2°34.642 275.4 3.7 265 16.2
2008-04-25 10:49:30 51°8.79 2°34.546 267.3 3.7 258 16.3
2008-04-25 10:50:30 51°8.776 2°34.452 262.4 3.7 255 16.8
2008-04-25 10:51:30 51°8.76 2°34.358 263.4 3.7 256 16.7
2008-04-25 10:52:30 51°8.747 2°34.262 265.2 3.7 258 16.6
2008-04-25 10:53:30 51°8.735 2°34.167 267.9 3.6 259 16.6
2008-04-25 10:54:31 51°8.724 2°34.072 269.8 3.6 261 16.4
2008-04-25 10:55:30 51°8.716 2°33.982 272.1 3.5 263 15.9
2008-04-25 10:56:30 51°8.711 2°33.893 275.7 3.4 267 15.6
2008-04-25 10:57:30 51°8.709 2°33.804 279.5 3.3 269 15.6
2008-04-25 10:58:30 51°8.709 2°33.716 282.2 3.3 272 16
2008-04-25 10:59:30 51°8.711 2°33.628 283.5 3.3 271 15.4
2008-04-25 11:00:30 51°8.713 2°33.542 284.3 3.3 273 15.5
2008-04-25 11:01:30 51°8.713 2°33.455 277.8 3.3 267 16.1
2008-04-25 11:02:30 51°8.706 2°33.367 269 3.4 260 16.7
2008-04-25 11:03:30 51°8.694 2°33.277 263.3 3.5 255 17.4
2008-04-25 11:04:30 51°8.675 2°33.188 254 3.6 248 17.6
2008-04-25 11:05:30 51°8.648 2°33.104 241.2 3.6 238 17.8
2008-04-25 11:06:30 51°8.612 2°33.026 234.3 3.6 232 18.1
2008-04-25 11:07:30 51°8.575 2°32.95 232.8 3.6 232 17.9
2008-04-25 11:08:30 51°8.535 2°32.877 230.4 3.6 229 17.9
2008-04-25 11:09:30 51°8.495 2°32.808 228.3 3.6 226 17.7
2008-04-25 11:10:30 51°8.453 2°32.739 228.5 3.6 227 17.9
2008-04-25 11:11:30 51°8.414 2°32.668 234.1 3.5 231 17.5
2008-04-25 11:12:31 51°8.38 2°32.591 242.2 3.5 238 18
2008-04-25 11:13:30 51°8.353 2°32.512 252.6 3.4 246 18
2008-04-25 11:14:30 51°8.336 2°32.429 271.5 3.1 261 17.9
2008-04-25 11:15:30 51°8.343 2°32.359 318.8 2.4 299 18.3
2008-04-25 11:16:30 51°8.361 2°32.322 343.8 1.4 306 18.7
2008-04-25 11:17:31 51°8.37 2°32.296 338.1 1 290 18.8
2008-04-25 11:18:30 51°8.372 2°32.273 330.5 0.9 268 18.9
2008-04-25 11:19:30 51°8.369 2°32.252 326.3 0.8 252 18.9
2008-04-25 11:20:30 51°8.364 2°32.235 327.5 0.7 235 19
2008-04-25 11:21:30 51°8.357 2°32.222 332.3 0.7 227 19.2
2008-04-25 11:22:29 51°8.374 2°32.208 15 2.3 6 19.1
2008-04-25 11:23:30 51°8.402 2°32.276 64.3 4.7 67 19
2008-04-25 11:24:29 51°8.458 2°32.444 60 9.2 61 18.4
2008-04-25 11:25:30 51°8.537 2°32.697 64.5 11.3 66 19
2008-04-25 11:26:30 51°8.615 2°32.972 65.7 11.4 67 18.6
2008-04-25 11:27:30 51°8.693 2°33.248 66.4 11.5 66 17.7
2008-04-25 11:28:30 51°8.768 2°33.528 66.3 11.5 67 16.6
2008-04-25 11:29:30 51°8.85 2°33.802 63.5 11.4 65 15.7
2008-04-25 11:30:30 51°8.928 2°34.079 66.5 11.5 68 15.4
2008-04-25 11:31:30 51°9.004 2°34.358 65.5 11.5 66 15.9
2008-04-25 11:32:30 51°9.079 2°34.638 66.3 11.5 66 16.4
2008-04-25 11:33:29 51°9.159 2°34.91 65.8 11.6 65 17.1
2008-04-25 11:34:30 51°9.239 2°35.191 65.7 11.5 67 15.9
2008-04-25 11:35:30 51°9.316 2°35.471 66 11.5 66 16.5
2008-04-25 11:36:30 51°9.397 2°35.743 62.7 11.4 64 16.2
2008-04-25 11:37:30 51°9.479 2°36.015 64.3 11.4 64 16.6
2008-04-25 11:38:30 51°9.557 2°36.292 65.8 11.5 66 16.3
2008-04-25 11:39:30 51°9.635 2°36.568 64.7 11.5 65 16.4
2008-04-25 11:40:30 51°9.714 2°36.843 67 11.4 68 16.2
2008-04-25 11:41:30 51°9.789 2°37.122 66 11.5 66 16.6
2008-04-25 11:42:30 51°9.87 2°37.397 64.9 11.5 66 16.8
2008-04-25 11:43:30 51°9.946 2°37.676 66.9 11.5 66 16.9
2008-04-25 11:44:30 51°10.024 2°37.955 64.1 11.5 65 16.9
2008-04-25 11:45:30 51°10.105 2°38.233 66.5 11.6 68 16.5
2008-04-25 11:46:30 51°10.179 2°38.517 66.2 11.7 67 15.6
2008-04-25 11:47:30 51°10.262 2°38.793 64.2 11.6 65 15.9
2008-04-25 11:48:30 51°10.357 2°39.01 26.8 7.6 15 15.5
2008-04-25 11:49:29 51°10.439 2°38.883 298.9 8.5 294 16.5
2008-04-25 11:50:30 51°10.474 2°38.643 279.6 9.6 276 16.7
2008-04-25 11:51:30 51°10.488 2°38.387 278 9.8 275 17.8
2008-04-25 11:52:30 51°10.505 2°38.129 279.1 9.7 276 18.2
2008-04-25 11:53:30 51°10.523 2°37.877 279.5 9.5 276 17.9
2008-04-25 11:54:30 51°10.535 2°37.626 276.9 9.5 274 16.3
2008-04-25 11:55:30 51°10.548 2°37.379 277.9 9.3 274 12.9
2008-04-25 11:56:30 51°10.559 2°37.133 278.2 9.2 274 10.1
2008-04-25 11:57:30 51°10.563 2°36.944 278.2 6.3 272 8.7
2008-04-25 11:58:30 51°10.565 2°36.788 278.3 5.7 271 9.4
2008-04-25 11:59:30 51°10.566 2°36.639 278.8 5.6 271 9.7
2008-04-25 12:00:30 51°10.567 2°36.492 278.3 5.6 270 10.2
2008-04-25 12:01:29 51°10.567 2°36.348 279 5.6 270 10.9
2008-04-25 12:02:30 51°10.567 2°36.197 277.9 5.6 270 11.3
2008-04-25 12:03:30 51°10.568 2°36.05 278.3 5.6 271 11.3
2008-04-25 12:04:30 51°10.57 2°35.902 277.8 5.5 271 11.4
2008-04-25 12:05:30 51°10.572 2°35.756 278.8 5.5 272 11.3
2008-04-25 12:06:30 51°10.575 2°35.611 278.3 5.5 272 11
2008-04-25 12:07:30 51°10.53 2°35.491 211.6 6.7 205 10.6
2008-04-25 12:08:30 51°10.385 2°35.529 159.8 11.4 161 11.5
2008-04-25 12:09:30 51°10.212 2°35.711 135.6 12.8 138 11.4
2008-04-25 12:10:30 51°10.062 2°35.952 128.2 12.7 128 17.2
2008-04-25 12:11:30 51°9.983 2°36.258 102 12.4 100 18.6
2008-04-25 12:12:30 51°10.019 2°36.575 74.6 12.3 73 18.5
2008-04-25 12:13:30 51°10.071 2°36.892 75.4 12.3 75 18.4
2008-04-25 12:14:30 51°10.119 2°37.209 77.3 12.3 77 18.7
2008-04-25 12:15:30 51°10.162 2°37.528 78.2 12.3 78 18.4
2008-04-25 12:16:30 51°10.211 2°37.844 75.4 12.3 76 17.8
2008-04-25 12:17:30 51°10.256 2°38.162 77.8 12.4 78 17.2
2008-04-25 12:18:30 51°10.301 2°38.483 75.3 12.4 75 16.5
2008-04-25 12:19:30 51°10.352 2°38.799 75.3 12.3 76 17
2008-04-25 12:20:30 51°10.408 2°39.111 72.6 12.2 73 15.8
2008-04-25 12:21:30 51°10.461 2°39.426 72.7 12.2 74 15.5
2008-04-25 12:22:30 51°10.524 2°39.736 70.9 12.2 71 15.3
2008-04-25 12:23:30 51°10.583 2°40.049 73.4 12.4 74 14.6
2008-04-25 12:24:30 51°10.643 2°40.361 71.8 12.3 73 14.2
2008-04-25 12:25:30 51°10.703 2°40.674 71.8 12.3 73 13.7
2008-04-25 12:26:30 51°10.76 2°40.99 68.9 12.4 68 13.4
2008-04-25 12:27:30 51°10.82 2°41.3 81.9 12.4 84 13.3
2008-04-25 12:28:30 51°10.862 2°41.617 70.7 12.2 70 13.3
2008-04-25 12:29:30 51°10.933 2°41.92 68.4 12.3 68 13.4
2008-04-25 12:30:30 51°11.002 2°42.227 70.3 12.3 70 13.4
2008-04-25 12:31:30 51°11.064 2°42.54 73.1 12.4 74 13.4
2008-04-25 12:32:30 51°11.13 2°42.85 70.3 12.3 71 13.6
2008-04-25 12:33:30 51°11.192 2°43.163 73.8 12.4 74 13.6
2008-04-25 12:34:30 51°11.257 2°43.477 71.3 12.5 71 13.7
2008-04-25 12:35:30 51°11.321 2°43.791 72.4 12.5 74 13.7
2008-04-25 12:36:30 51°11.377 2°44.11 72.2 12.5 73 13.8
2008-04-25 12:37:30 51°11.442 2°44.427 71.1 12.6 72 13.8
2008-04-25 12:38:30 51°11.503 2°44.747 72.3 12.7 73 13.8
2008-04-25 12:39:30 51°11.568 2°45.066 72 12.6 71 13.8
2008-04-25 12:40:30 51°11.629 2°45.385 73.1 12.6 73 13.9
2008-04-25 12:41:30 51°11.69 2°45.703 70.9 12.5 71 13.9
2008-04-25 12:42:30 51°11.757 2°46.013 71 12.4 72 13.9
2008-04-25 12:43:30 51°11.834 2°46.318 64.8 12.5 67 14
2008-04-25 12:44:30 51°11.918 2°46.619 64.9 12.4 66 14
2008-04-25 12:45:30 51°12.012 2°46.914 63 12.4 63 13.9
2008-04-25 12:46:30 51°12.104 2°47.209 63.7 12.4 65 13.9
2008-04-25 12:47:30 51°12.195 2°47.506 61.7 12.4 61 13.8
2008-04-25 12:48:30 51°12.299 2°47.793 60.9 12.6 62 13.8
2008-04-25 12:49:30 51°12.395 2°48.08 61.3 12.2 62 13.7
2008-04-25 12:50:30 51°12.489 2°48.37 61.6 12.3 63 13.6
2008-04-25 12:51:30 51°12.59 2°48.656 61.6 12.4 62 13.5
2008-04-25 12:52:30 51°12.688 2°48.944 62.3 12.4 62 13.3
2008-04-25 12:53:30 51°12.787 2°49.232 59.1 12.4 59 13.3
2008-04-25 12:54:30 51°12.891 2°49.519 60.5 12.5 61 13.1
2008-04-25 12:55:30 51°12.994 2°49.808 58.5 12.5 57 13
2008-04-25 12:56:30 51°13.101 2°50.094 58.7 12.6 60 12.9
2008-04-25 12:57:30 51°13.204 2°50.385 59.2 12.7 62 12.8
2008-04-25 12:58:30 51°13.302 2°50.682 60.8 12.7 62 12.7
2008-04-25 12:59:30 51°13.402 2°50.978 62.5 12.7 63 12.6
2008-04-25 13:00:30 51°13.506 2°51.27 58.5 12.7 59 12.5
2008-04-25 13:01:30 51°13.612 2°51.561 60.6 12.7 61 12.4
2008-04-25 13:02:30 51°13.722 2°51.846 56.8 12.6 56 12.3
2008-04-25 13:03:30 51°13.828 2°52.134 59.7 12.6 59 12.2
2008-04-25 13:04:30 51°13.936 2°52.421 61 12.6 59 12.2
2008-04-25 13:05:30 51°14.045 2°52.708 57.9 12.7 56 12.2
2008-04-25 13:06:30 51°14.179 2°52.966 49 12.7 48 12
2008-04-25 13:07:30 51°14.329 2°53.203 46.2 12.7 46 11.8
2008-04-25 13:08:30 51°14.457 2°53.469 62.3 12.7 62 11.3
2008-04-25 13:09:30 51°14.53 2°53.78 82.9 12.6 84 11.6
2008-04-25 13:10:30 51°14.508 2°54.112 104.9 12.6 104 11.8
2008-04-25 13:11:30 51°14.483 2°54.442 96.1 12.5 97 12
2008-04-25 13:12:30 51°14.439 2°54.768 106.9 12.5 107 12.1
2008-04-25 13:13:30 51°14.37 2°55.018 122.3 9.4 121 12.4
2008-04-25 13:14:33 51°14.274 2°55.227 131.6 9.1 134 11.7
2008-04-25 13:15:34 51°14.161 2°55.374 149.8 7.6 149 -999
2008-04-25 13:16:34 51°14.06 2°55.456 153.4 6.3 155 -999
2008-04-25 13:17:34 51°13.971 2°55.523 154.9 5.7 155 -999
2008-04-25 13:18:34 51°13.899 2°55.578 153.6 5.4 155 -999
2008-04-25 13:19:34 51°13.799 2°55.658 146.5 6.1 150 -999
2008-04-25 13:20:34 51°13.733 2°55.752 129.6 5.6 129 -999
2008-04-25 13:21:34 51°13.683 2°55.868 113.9 4.5 117 -999
2008-04-25 13:22:34 51°13.667 2°55.944 114.6 1.8 109 -999